sensor_id;sensor_type;location;lat;lon;timestamp;temperature;humidity
975;DHT22;6115;49.296;10.602;2023-02-08T00:02:44;-6.20;62.90
975;DHT22;6115;49.296;10.602;2023-02-08T00:07:45;-6.30;62.20
975;DHT22;6115;49.296;10.602;2023-02-08T00:12:45;-6.40;62.50
975;DHT22;6115;49.296;10.602;2023-02-08T00:17:46;-6.40;62.20
975;DHT22;6115;49.296;10.602;2023-02-08T00:22:46;-6.40;62.20
975;DHT22;6115;49.296;10.602;2023-02-08T00:27:47;-6.50;62.50
975;DHT22;6115;49.296;10.602;2023-02-08T00:32:48;-6.50;62.50
975;DHT22;6115;49.296;10.602;2023-02-08T00:37:48;-6.50;62.50
975;DHT22;6115;49.296;10.602;2023-02-08T00:42:49;-6.60;63.60
975;DHT22;6115;49.296;10.602;2023-02-08T00:47:50;-6.60;63.10
975;DHT22;6115;49.296;10.602;2023-02-08T00:52:50;-6.60;62.80
975;DHT22;6115;49.296;10.602;2023-02-08T00:57:51;-6.70;63.10
975;DHT22;6115;49.296;10.602;2023-02-08T01:02:51;-6.80;63.00
975;DHT22;6115;49.296;10.602;2023-02-08T01:07:52;-6.80;63.80
975;DHT22;6115;49.296;10.602;2023-02-08T01:12:52;-6.80;63.50
975;DHT22;6115;49.296;10.602;2023-02-08T01:17:56;-6.80;62.90
975;DHT22;6115;49.296;10.602;2023-02-08T01:22:56;-6.90;62.60
975;DHT22;6115;49.296;10.602;2023-02-08T01:27:57;-6.90;62.50
975;DHT22;6115;49.296;10.602;2023-02-08T01:32:58;-6.90;62.70
975;DHT22;6115;49.296;10.602;2023-02-08T01:37:58;-7.00;62.80
975;DHT22;6115;49.296;10.602;2023-02-08T01:42:59;-7.10;62.40
975;DHT22;6115;49.296;10.602;2023-02-08T01:53:21;-7.10;62.30
975;DHT22;6115;49.296;10.602;2023-02-08T01:58:25;-7.20;62.70
975;DHT22;6115;49.296;10.602;2023-02-08T02:03:27;-7.10;63.50
975;DHT22;6115;49.296;10.602;2023-02-08T02:08:29;-7.20;63.40
975;DHT22;6115;49.296;10.602;2023-02-08T02:13:30;-7.20;62.70
975;DHT22;6115;49.296;10.602;2023-02-08T02:18:32;-7.30;62.10
975;DHT22;6115;49.296;10.602;2023-02-08T02:23:58;-7.30;61.80
975;DHT22;6115;49.296;10.602;2023-02-08T02:29:38;-7.40;61.60
975;DHT22;6115;49.296;10.602;2023-02-08T02:34:59;-7.30;61.80
975;DHT22;6115;49.296;10.602;2023-02-08T02:45:10;-7.50;63.50
975;DHT22;6115;49.296;10.602;2023-02-08T02:50:36;-7.50;63.50
975;DHT22;6115;49.296;10.602;2023-02-08T02:55:44;-7.60;63.40
975;DHT22;6115;49.296;10.602;2023-02-08T03:00:52;-7.60;63.80
975;DHT22;6115;49.296;10.602;2023-02-08T03:06:02;-7.60;63.40
975;DHT22;6115;49.296;10.602;2023-02-08T03:11:14;-7.60;63.40
975;DHT22;6115;49.296;10.602;2023-02-08T03:16:28;-7.70;63.00
975;DHT22;6115;49.296;10.602;2023-02-08T03:21:36;-7.70;63.30
975;DHT22;6115;49.296;10.602;2023-02-08T03:26:46;-7.70;63.30
975;DHT22;6115;49.296;10.602;2023-02-08T03:31:53;-7.70;64.50
975;DHT22;6115;49.296;10.602;2023-02-08T03:37:03;-7.70;64.40
975;DHT22;6115;49.296;10.602;2023-02-08T03:42:11;-7.70;64.40
975;DHT22;6115;49.296;10.602;2023-02-08T03:47:25;-7.80;64.90
975;DHT22;6115;49.296;10.602;2023-02-08T03:52:27;-7.80;64.70
975;DHT22;6115;49.296;10.602;2023-02-08T03:57:37;-7.80;64.70
975;DHT22;6115;49.296;10.602;2023-02-08T04:02:47;-7.90;65.10
975;DHT22;6115;49.296;10.602;2023-02-08T04:07:51;-7.80;64.20
975;DHT22;6115;49.296;10.602;2023-02-08T04:12:52;-7.80;63.20
975;DHT22;6115;49.296;10.602;2023-02-08T04:17:53;-7.90;63.10
975;DHT22;6115;49.296;10.602;2023-02-08T04:22:54;-7.90;63.10
975;DHT22;6115;49.296;10.602;2023-02-08T04:27:54;-8.00;63.00
975;DHT22;6115;49.296;10.602;2023-02-08T04:32:55;-8.00;62.50
975;DHT22;6115;49.296;10.602;2023-02-08T04:37:55;-8.10;62.40
975;DHT22;6115;49.296;10.602;2023-02-08T04:42:56;-8.10;62.10
975;DHT22;6115;49.296;10.602;2023-02-08T04:47:59;-8.20;62.90
975;DHT22;6115;49.296;10.602;2023-02-08T04:52:59;-8.10;63.40
975;DHT22;6115;49.296;10.602;2023-02-08T04:58:00;-8.20;63.80
975;DHT22;6115;49.296;10.602;2023-02-08T05:03:01;-8.10;63.80
975;DHT22;6115;49.296;10.602;2023-02-08T05:08:02;-8.20;63.80
975;DHT22;6115;49.296;10.602;2023-02-08T05:13:02;-8.10;62.90
975;DHT22;6115;49.296;10.602;2023-02-08T05:18:03;-8.20;62.90
975;DHT22;6115;49.296;10.602;2023-02-08T05:23:04;-8.20;62.20
975;DHT22;6115;49.296;10.602;2023-02-08T05:28:05;-8.20;62.00
975;DHT22;6115;49.296;10.602;2023-02-08T05:33:05;-8.20;61.80
975;DHT22;6115;49.296;10.602;2023-02-08T05:38:06;-8.30;62.10
975;DHT22;6115;49.296;10.602;2023-02-08T05:43:07;-8.30;62.40
975;DHT22;6115;49.296;10.602;2023-02-08T05:48:07;-8.30;61.80
975;DHT22;6115;49.296;10.602;2023-02-08T05:53:08;-8.40;61.60
975;DHT22;6115;49.296;10.602;2023-02-08T05:58:09;-8.30;61.80
975;DHT22;6115;49.296;10.602;2023-02-08T06:03:09;-8.30;61.70
975;DHT22;6115;49.296;10.602;2023-02-08T06:08:10;-8.30;62.00
975;DHT22;6115;49.296;10.602;2023-02-08T06:13:10;-8.30;62.80
975;DHT22;6115;49.296;10.602;2023-02-08T06:18:11;-8.40;63.40
975;DHT22;6115;49.296;10.602;2023-02-08T06:23:12;-8.40;62.70
975;DHT22;6115;49.296;10.602;2023-02-08T06:28:13;-8.40;62.70
975;DHT22;6115;49.296;10.602;2023-02-08T06:33:13;-8.40;62.70
975;DHT22;6115;49.296;10.602;2023-02-08T06:38:14;-8.40;62.70
975;DHT22;6115;49.296;10.602;2023-02-08T06:43:15;-8.50;62.60
975;DHT22;6115;49.296;10.602;2023-02-08T06:48:15;-8.40;62.70
975;DHT22;6115;49.296;10.602;2023-02-08T06:53:16;-8.50;62.60
975;DHT22;6115;49.296;10.602;2023-02-08T06:58:17;-8.40;62.70
975;DHT22;6115;49.296;10.602;2023-02-08T07:03:18;-8.40;62.70
975;DHT22;6115;49.296;10.602;2023-02-08T07:08:18;-8.40;62.70
975;DHT22;6115;49.296;10.602;2023-02-08T07:13:19;-8.40;63.00
975;DHT22;6115;49.296;10.602;2023-02-08T07:18:19;-8.30;62.80
975;DHT22;6115;49.296;10.602;2023-02-08T07:23:20;-8.30;62.80
975;DHT22;6115;49.296;10.602;2023-02-08T07:28:20;-8.20;62.90
975;DHT22;6115;49.296;10.602;2023-02-08T07:33:22;-8.10;63.00
975;DHT22;6115;49.296;10.602;2023-02-08T07:38:23;-8.00;63.00
975;DHT22;6115;49.296;10.602;2023-02-08T07:43:23;-8.00;63.40
975;DHT22;6115;49.296;10.602;2023-02-08T07:48:24;-7.80;64.60
975;DHT22;6115;49.296;10.602;2023-02-08T07:53:24;-7.70;65.10
975;DHT22;6115;49.296;10.602;2023-02-08T07:58:25;-7.50;65.80
975;DHT22;6115;49.296;10.602;2023-02-08T08:03:26;-7.30;66.10
975;DHT22;6115;49.296;10.602;2023-02-08T08:08:27;-7.20;66.20
975;DHT22;6115;49.296;10.602;2023-02-08T08:13:27;-7.00;66.70
975;DHT22;6115;49.296;10.602;2023-02-08T08:18:28;-6.80;67.30
975;DHT22;6115;49.296;10.602;2023-02-08T08:23:32;-6.50;67.80
975;DHT22;6115;49.296;10.602;2023-02-08T08:28:32;-6.30;68.10
975;DHT22;6115;49.296;10.602;2023-02-08T08:33:33;-5.90;69.00
975;DHT22;6115;49.296;10.602;2023-02-08T08:38:33;-5.60;69.20
975;DHT22;6115;49.296;10.602;2023-02-08T08:43:34;-5.20;69.10
975;DHT22;6115;49.296;10.602;2023-02-08T08:48:35;-4.90;68.60
975;DHT22;6115;49.296;10.602;2023-02-08T08:53:37;-4.50;66.80
975;DHT22;6115;49.296;10.602;2023-02-08T08:58:38;-4.20;65.90
975;DHT22;6115;49.296;10.602;2023-02-08T09:03:39;-3.90;64.80
975;DHT22;6115;49.296;10.602;2023-02-08T09:08:39;-3.70;64.10
975;DHT22;6115;49.296;10.602;2023-02-08T09:13:40;-3.50;62.80
975;DHT22;6115;49.296;10.602;2023-02-08T09:18:41;-3.30;62.50
975;DHT22;6115;49.296;10.602;2023-02-08T09:23:42;-3.10;60.80
975;DHT22;6115;49.296;10.602;2023-02-08T09:28:43;-2.80;60.30
975;DHT22;6115;49.296;10.602;2023-02-08T09:33:44;-2.60;59.50
975;DHT22;6115;49.296;10.602;2023-02-08T09:38:46;-2.40;57.80
975;DHT22;6115;49.296;10.602;2023-02-08T09:49:15;-2.00;56.10
975;DHT22;6115;49.296;10.602;2023-02-08T09:54:21;-0.90;55.30
975;DHT22;6115;49.296;10.602;2023-02-08T09:59:25;1.20;54.30
975;DHT22;6115;49.296;10.602;2023-02-08T10:04:50;2.40;49.70
975;DHT22;6115;49.296;10.602;2023-02-08T10:09:59;3.00;45.80
975;DHT22;6115;49.296;10.602;2023-02-08T10:15:21;4.10;42.80
975;DHT22;6115;49.296;10.602;2023-02-08T10:20:47;4.80;39.40
975;DHT22;6115;49.296;10.602;2023-02-08T10:31:23;6.00;36.40
975;DHT22;6115;49.296;10.602;2023-02-08T10:36:36;6.20;35.90
975;DHT22;6115;49.296;10.602;2023-02-08T10:41:42;7.30;34.20
975;DHT22;6115;49.296;10.602;2023-02-08T10:46:49;7.00;32.10
975;DHT22;6115;49.296;10.602;2023-02-08T10:51:51;7.60;32.20
975;DHT22;6115;49.296;10.602;2023-02-08T10:56:58;7.40;30.90
975;DHT22;6115;49.296;10.602;2023-02-08T11:02:00;7.30;30.90
975;DHT22;6115;49.296;10.602;2023-02-08T11:07:19;6.70;31.40
975;DHT22;6115;49.296;10.602;2023-02-08T11:12:23;7.30;31.90
975;DHT22;6115;49.296;10.602;2023-02-08T11:17:29;7.70;31.20
975;DHT22;6115;49.296;10.602;2023-02-08T11:22:30;7.90;30.50
975;DHT22;6115;49.296;10.602;2023-02-08T11:27:34;8.10;29.50
975;DHT22;6115;49.296;10.602;2023-02-08T11:32:39;8.20;31.50
975;DHT22;6115;49.296;10.602;2023-02-08T11:37:45;8.70;29.40
975;DHT22;6115;49.296;10.602;2023-02-08T11:42:47;8.40;30.00
975;DHT22;6115;49.296;10.602;2023-02-08T11:47:49;8.50;29.90
975;DHT22;6115;49.296;10.602;2023-02-08T11:53:02;8.40;29.60
975;DHT22;6115;49.296;10.602;2023-02-08T11:58:23;8.30;30.60
975;DHT22;6115;49.296;10.602;2023-02-08T12:03:28;8.30;31.70
975;DHT22;6115;49.296;10.602;2023-02-08T12:08:51;8.20;30.70
975;DHT22;6115;49.296;10.602;2023-02-08T12:35:32;8.70;30.90
975;DHT22;6115;49.296;10.602;2023-02-08T12:46:52;8.20;29.80
975;DHT22;6115;49.296;10.602;2023-02-08T12:57:16;7.80;29.10
975;DHT22;6115;49.296;10.602;2023-02-08T13:07:45;6.90;30.50
975;DHT22;6115;49.296;10.602;2023-02-08T13:12:53;6.70;30.40
975;DHT22;6115;49.296;10.602;2023-02-08T13:17:56;7.00;30.60
975;DHT22;6115;49.296;10.602;2023-02-08T13:23:02;6.90;30.50
975;DHT22;6115;49.296;10.602;2023-02-08T13:28:06;7.20;30.80
975;DHT22;6115;49.296;10.602;2023-02-08T13:33:15;6.80;30.50
975;DHT22;6115;49.296;10.602;2023-02-08T13:38:25;7.00;30.60
975;DHT22;6115;49.296;10.602;2023-02-08T13:43:39;7.20;30.80
975;DHT22;6115;49.296;10.602;2023-02-08T13:48:47;7.30;31.20
975;DHT22;6115;49.296;10.602;2023-02-08T13:59:00;7.00;30.60
975;DHT22;6115;49.296;10.602;2023-02-08T14:09:18;7.00;29.90
975;DHT22;6115;49.296;10.602;2023-02-08T14:14:26;6.80;30.00
975;DHT22;6115;49.296;10.602;2023-02-08T14:19:27;6.60;30.30
975;DHT22;6115;49.296;10.602;2023-02-08T14:24:32;6.70;30.40
975;DHT22;6115;49.296;10.602;2023-02-08T14:29:34;6.50;30.90
975;DHT22;6115;49.296;10.602;2023-02-08T14:34:38;6.30;30.10
975;DHT22;6115;49.296;10.602;2023-02-08T14:39:39;5.80;30.40
975;DHT22;6115;49.296;10.602;2023-02-08T14:49:42;5.90;31.10
975;DHT22;6115;49.296;10.602;2023-02-08T14:54:49;5.90;31.50
975;DHT22;6115;49.296;10.602;2023-02-08T14:59:52;5.70;31.60
975;DHT22;6115;49.296;10.602;2023-02-08T15:04:54;5.30;32.70
975;DHT22;6115;49.296;10.602;2023-02-08T15:09:56;5.00;33.40
975;DHT22;6115;49.296;10.602;2023-02-08T15:14:59;4.80;33.60
975;DHT22;6115;49.296;10.602;2023-02-08T15:20:03;4.70;33.70
975;DHT22;6115;49.296;10.602;2023-02-08T15:25:26;4.20;34.60
975;DHT22;6115;49.296;10.602;2023-02-08T15:30:35;4.10;35.20
975;DHT22;6115;49.296;10.602;2023-02-08T15:35:36;3.90;36.10
975;DHT22;6115;49.296;10.602;2023-02-08T15:40:37;3.50;36.00
975;DHT22;6115;49.296;10.602;2023-02-08T15:45:37;3.10;36.20
975;DHT22;6115;49.296;10.602;2023-02-08T15:50:38;2.90;36.70
975;DHT22;6115;49.296;10.602;2023-02-08T15:55:46;2.60;37.00
975;DHT22;6115;49.296;10.602;2023-02-08T16:00:48;2.40;37.40
975;DHT22;6115;49.296;10.602;2023-02-08T16:05:50;2.20;38.20
975;DHT22;6115;49.296;10.602;2023-02-08T16:11:02;1.90;38.20
975;DHT22;6115;49.296;10.602;2023-02-08T16:21:39;1.50;39.20
975;DHT22;6115;49.296;10.602;2023-02-08T16:27:01;1.40;40.10
975;DHT22;6115;49.296;10.602;2023-02-08T16:32:06;1.20;39.90
975;DHT22;6115;49.296;10.602;2023-02-08T16:42:29;0.70;41.10
975;DHT22;6115;49.296;10.602;2023-02-08T16:47:41;0.50;41.60
975;DHT22;6115;49.296;10.602;2023-02-08T16:52:42;0.40;42.20
975;DHT22;6115;49.296;10.602;2023-02-08T16:57:44;0.20;43.00
975;DHT22;6115;49.296;10.602;2023-02-08T17:02:46;0.00;43.50
975;DHT22;6115;49.296;10.602;2023-02-08T17:07:47;-0.10;43.30
975;DHT22;6115;49.296;10.602;2023-02-08T17:12:48;-0.30;43.50
975;DHT22;6115;49.296;10.602;2023-02-08T17:17:52;-0.40;43.70
975;DHT22;6115;49.296;10.602;2023-02-08T17:22:54;-0.50;44.20
975;DHT22;6115;49.296;10.602;2023-02-08T17:27:58;-0.60;44.60
975;DHT22;6115;49.296;10.602;2023-02-08T17:32:59;-0.80;44.90
975;DHT22;6115;49.296;10.602;2023-02-08T17:38:00;-0.90;45.00
975;DHT22;6115;49.296;10.602;2023-02-08T17:43:02;-1.00;45.40
975;DHT22;6115;49.296;10.602;2023-02-08T17:48:03;-1.20;46.40
975;DHT22;6115;49.296;10.602;2023-02-08T17:53:03;-1.30;46.80
975;DHT22;6115;49.296;10.602;2023-02-08T17:58:04;-1.40;47.60
975;DHT22;6115;49.296;10.602;2023-02-08T18:03:04;-1.50;47.80
975;DHT22;6115;49.296;10.602;2023-02-08T18:08:05;-1.70;47.80
975;DHT22;6115;49.296;10.602;2023-02-08T18:13:06;-1.80;48.10
975;DHT22;6115;49.296;10.602;2023-02-08T18:18:06;-1.90;48.80
975;DHT22;6115;49.296;10.602;2023-02-08T18:23:07;-1.90;49.80
975;DHT22;6115;49.296;10.602;2023-02-08T18:28:07;-2.00;49.70
975;DHT22;6115;49.296;10.602;2023-02-08T18:33:08;-2.20;49.80
975;DHT22;6115;49.296;10.602;2023-02-08T18:38:10;-2.30;50.40
975;DHT22;6115;49.296;10.602;2023-02-08T18:43:10;-2.40;50.30
975;DHT22;6115;49.296;10.602;2023-02-08T18:48:11;-2.60;51.00
975;DHT22;6115;49.296;10.602;2023-02-08T18:53:12;-2.60;52.10
975;DHT22;6115;49.296;10.602;2023-02-08T18:58:13;-2.70;52.10
975;DHT22;6115;49.296;10.602;2023-02-08T19:03:13;-2.80;52.20
975;DHT22;6115;49.296;10.602;2023-02-08T19:08:14;-2.90;52.50
975;DHT22;6115;49.296;10.602;2023-02-08T19:13:19;-3.00;53.20
975;DHT22;6115;49.296;10.602;2023-02-08T19:18:20;-3.00;54.10
975;DHT22;6115;49.296;10.602;2023-02-08T19:23:23;-3.10;54.00
975;DHT22;6115;49.296;10.602;2023-02-08T19:28:24;-3.20;54.00
975;DHT22;6115;49.296;10.602;2023-02-08T19:33:25;-3.20;54.00
975;DHT22;6115;49.296;10.602;2023-02-08T19:38:25;-3.30;53.90
975;DHT22;6115;49.296;10.602;2023-02-08T19:43:26;-3.40;53.90
975;DHT22;6115;49.296;10.602;2023-02-08T19:48:27;-3.50;54.40
975;DHT22;6115;49.296;10.602;2023-02-08T19:53:28;-3.60;54.70
975;DHT22;6115;49.296;10.602;2023-02-08T19:58:29;-3.70;55.00
975;DHT22;6115;49.296;10.602;2023-02-08T20:03:30;-3.80;55.50
975;DHT22;6115;49.296;10.602;2023-02-08T20:08:31;-3.80;56.30
975;DHT22;6115;49.296;10.602;2023-02-08T20:13:31;-3.80;57.00
975;DHT22;6115;49.296;10.602;2023-02-08T20:18:32;-3.90;57.70
975;DHT22;6115;49.296;10.602;2023-02-08T20:23:32;-4.00;58.00
975;DHT22;6115;49.296;10.602;2023-02-08T20:28:35;-4.00;58.50
975;DHT22;6115;49.296;10.602;2023-02-08T20:33:36;-4.10;59.10
975;DHT22;6115;49.296;10.602;2023-02-08T20:38:37;-4.20;59.30
975;DHT22;6115;49.296;10.602;2023-02-08T20:43:39;-4.20;59.40
975;DHT22;6115;49.296;10.602;2023-02-08T20:48:40;-4.30;58.90
975;DHT22;6115;49.296;10.602;2023-02-08T20:53:42;-4.30;59.00
975;DHT22;6115;49.296;10.602;2023-02-08T20:58:44;-4.40;59.20
975;DHT22;6115;49.296;10.602;2023-02-08T21:03:46;-4.50;58.90
975;DHT22;6115;49.296;10.602;2023-02-08T21:08:47;-4.50;59.00
975;DHT22;6115;49.296;10.602;2023-02-08T21:13:51;-4.60;59.10
975;DHT22;6115;49.296;10.602;2023-02-08T21:18:52;-4.60;59.70
975;DHT22;6115;49.296;10.602;2023-02-08T21:23:53;-4.50;60.50
975;DHT22;6115;49.296;10.602;2023-02-08T21:28:56;-4.60;60.50
975;DHT22;6115;49.296;10.602;2023-02-08T21:33:59;-4.70;60.40
975;DHT22;6115;49.296;10.602;2023-02-08T21:39:03;-4.70;60.70
975;DHT22;6115;49.296;10.602;2023-02-08T21:44:04;-4.70;60.90
975;DHT22;6115;49.296;10.602;2023-02-08T21:49:08;-4.80;61.10
975;DHT22;6115;49.296;10.602;2023-02-08T21:54:29;-4.90;61.20
975;DHT22;6115;49.296;10.602;2023-02-08T21:59:32;-5.00;61.10
975;DHT22;6115;49.296;10.602;2023-02-08T22:04:36;-5.00;61.10
975;DHT22;6115;49.296;10.602;2023-02-08T22:09:37;-5.10;61.00
975;DHT22;6115;49.296;10.602;2023-02-08T22:14:39;-5.20;60.90
975;DHT22;6115;49.296;10.602;2023-02-08T22:19:40;-5.30;61.40
975;DHT22;6115;49.296;10.602;2023-02-08T22:24:41;-5.30;61.80
975;DHT22;6115;49.296;10.602;2023-02-08T22:29:41;-5.40;62.50
975;DHT22;6115;49.296;10.602;2023-02-08T22:34:43;-5.50;62.50
975;DHT22;6115;49.296;10.602;2023-02-08T22:39:44;-5.60;62.70
975;DHT22;6115;49.296;10.602;2023-02-08T22:44:44;-5.60;62.60
975;DHT22;6115;49.296;10.602;2023-02-08T22:49:45;-5.60;62.50
975;DHT22;6115;49.296;10.602;2023-02-08T22:54:46;-5.70;62.10
975;DHT22;6115;49.296;10.602;2023-02-08T22:59:47;-5.70;62.40
975;DHT22;6115;49.296;10.602;2023-02-08T23:04:47;-5.80;62.50
975;DHT22;6115;49.296;10.602;2023-02-08T23:09:48;-5.80;63.70
975;DHT22;6115;49.296;10.602;2023-02-08T23:14:48;-5.90;63.30
975;DHT22;6115;49.296;10.602;2023-02-08T23:19:50;-5.90;62.40
975;DHT22;6115;49.296;10.602;2023-02-08T23:24:51;-6.00;61.80
975;DHT22;6115;49.296;10.602;2023-02-08T23:29:53;-6.00;61.70
975;DHT22;6115;49.296;10.602;2023-02-08T23:34:54;-5.90;62.40
975;DHT22;6115;49.296;10.602;2023-02-08T23:39:54;-6.00;62.10
975;DHT22;6115;49.296;10.602;2023-02-08T23:44:56;-6.00;63.20
975;DHT22;6115;49.296;10.602;2023-02-08T23:49:58;-6.00;63.70
975;DHT22;6115;49.296;10.602;2023-02-08T23:54:59;-6.10;63.10
975;DHT22;6115;49.296;10.602;2023-02-08T23:59:59;-6.20;62.20
